createdAt,value
2023-01-04T00:01:42.807Z,99667.92
2023-01-04T00:04:10.035Z,99662.61
2023-01-04T00:06:37.363Z,99666.50
2023-01-04T00:09:04.629Z,99672.32
2023-01-04T00:11:31.724Z,99672.70
2023-01-04T00:13:59.582Z,99679.25
2023-01-04T00:16:27.742Z,99679.59
2023-01-04T00:18:54.972Z,99674.17
2023-01-04T00:21:26.665Z,99671.84
2023-01-04T00:23:54.759Z,99682.04
2023-01-04T00:26:26.397Z,99683.83
2023-01-04T00:28:57.832Z,99684.41
2023-01-04T00:31:26.392Z,99692.02
2023-01-04T00:33:54.509Z,99695.15
2023-01-04T00:36:21.739Z,99698.36
2023-01-04T00:39:07.670Z,99702.13
2023-01-04T00:41:58.823Z,99696.08
2023-01-04T00:44:26.910Z,99700.75
2023-01-04T00:46:54.261Z,99703.28
2023-01-04T00:49:21.308Z,99704.58
2023-01-04T00:51:48.273Z,99706.88
2023-01-04T00:54:15.976Z,99710.55
2023-01-04T00:56:43.212Z,99711.05
2023-01-04T00:59:11.161Z,99710.11
2023-01-04T01:01:39.190Z,99703.64
2023-01-04T01:04:06.456Z,99700.98
2023-01-04T01:06:35.301Z,99707.08
2023-01-04T01:09:02.549Z,99702.38
2023-01-04T01:11:29.769Z,99707.63
2023-01-04T01:13:57.500Z,99709.98
2023-01-04T01:16:53.008Z,99705.95
2023-01-04T01:19:12.199Z,99710.48
2023-01-04T01:21:39.098Z,99710.36
2023-01-04T01:24:06.200Z,99701.08
2023-01-04T01:26:37.450Z,99696.23
2023-01-04T01:29:04.381Z,99701.57
2023-01-04T01:31:31.382Z,99703.65
2023-01-04T01:33:58.459Z,99697.45
2023-01-04T01:36:26.132Z,99697.97
2023-01-04T01:38:53.668Z,99700.11
2023-01-04T01:41:22.987Z,99698.33
2023-01-04T01:43:53.102Z,99698.64
2023-01-04T01:46:23.264Z,99695.35
2023-01-04T01:48:52.447Z,99698.56
2023-01-04T01:51:19.793Z,99699.98
2023-01-04T01:53:47.959Z,99697.36
2023-01-04T01:56:16.258Z,99696.71
2023-01-04T01:58:45.637Z,99699.60
2023-01-04T02:01:13.297Z,99702.23
2023-01-04T02:03:42.671Z,99702.02
2023-01-04T02:06:11.934Z,99700.61
2023-01-04T02:08:40.350Z,99702.39
2023-01-04T02:11:07.277Z,99702.79
2023-01-04T02:13:55.358Z,99700.50
2023-01-04T02:16:47.387Z,99701.33
2023-01-04T02:19:29.724Z,99701.13
2023-01-04T02:22:09.371Z,99702.10
2023-01-04T02:24:50.813Z,99705.48
2023-01-04T02:27:24.766Z,99708.55
2023-01-04T02:30:03.965Z,99710.54
2023-01-04T02:33:04.060Z,99709.77
2023-01-04T02:35:50.163Z,99711.42
2023-01-04T02:38:27.998Z,99710.15
2023-01-04T02:41:20.834Z,99710.52
2023-01-04T02:44:14.937Z,99704.19
2023-01-04T02:46:50.625Z,99704.62
2023-01-04T02:49:36.487Z,99703.91
2023-01-04T02:52:03.458Z,99706.20
2023-01-04T02:54:32.604Z,99704.92
2023-01-04T02:57:14.682Z,99704.11
2023-01-04T02:59:53.613Z,99702.86
2023-01-04T03:02:42.372Z,99703.32
2023-01-04T03:05:33.520Z,99700.91
2023-01-04T03:08:23.594Z,99695.90
2023-01-04T03:11:26.453Z,99695.31
2023-01-04T03:13:54.082Z,99691.04
2023-01-04T03:16:23.686Z,99694.83
2023-01-04T03:18:53.020Z,99696.89
2023-01-04T03:21:20.199Z,99695.52
2023-01-04T03:24:25.843Z,99697.36
2023-01-04T03:27:13.514Z,99698.61
2023-01-04T03:30:26.277Z,99700.42
2023-01-04T03:33:17.262Z,99693.83
2023-01-04T03:36:19.705Z,99692.71
2023-01-04T03:39:10.529Z,99699.11
2023-01-04T03:42:20.088Z,99700.55
2023-01-04T03:45:32.886Z,99707.52
2023-01-04T03:48:29.570Z,99704.59
2023-01-04T03:51:07.700Z,99713.10
2023-01-04T03:53:38.451Z,99713.66
2023-01-04T03:56:05.544Z,99717.70
2023-01-04T03:58:32.592Z,99716.81
2023-01-04T04:01:04.037Z,99716.61
2023-01-04T04:03:50.713Z,99714.82
2023-01-04T04:06:36.841Z,99715.58
2023-01-04T04:09:04.621Z,99714.91
2023-01-04T04:11:31.605Z,99714.14
2023-01-04T04:13:59.360Z,99714.24
2023-01-04T04:16:27.692Z,99708.16
2023-01-04T04:18:55.052Z,99711.30
2023-01-04T04:21:22.207Z,99711.91
2023-01-04T04:23:49.316Z,99714.27
2023-01-04T04:26:16.542Z,99716.61
2023-01-04T04:28:43.671Z,99714.33
2023-01-04T04:31:10.661Z,99716.20
2023-01-04T04:33:37.894Z,99715.20
2023-01-04T04:36:05.343Z,99718.20
2023-01-04T04:38:33.257Z,99720.69
2023-01-04T04:41:18.906Z,99720.63
2023-01-04T04:43:48.485Z,99724.56
2023-01-04T04:46:15.579Z,99726.20
2023-01-04T04:48:42.518Z,99725.66
2023-01-04T04:51:12.709Z,99728.52
2023-01-04T04:53:39.616Z,99733.16
2023-01-04T04:56:07.662Z,99734.98
2023-01-04T04:58:34.765Z,99731.61
2023-01-04T05:01:01.896Z,99735.69
2023-01-04T05:03:29.225Z,99733.31
2023-01-04T05:05:58.984Z,99730.91
2023-01-04T05:08:26.103Z,99736.99
2023-01-04T05:10:54.324Z,99738.99
2023-01-04T05:13:21.343Z,99741.52
2023-01-04T05:15:51.480Z,99743.70
2023-01-04T05:18:19.796Z,99740.40
2023-01-04T05:20:47.165Z,99745.20
2023-01-04T05:23:14.890Z,99749.45
2023-01-04T05:25:41.882Z,99757.69
2023-01-04T05:28:09.289Z,99761.66
2023-01-04T05:30:51.268Z,99754.73
2023-01-04T05:33:28.827Z,99755.95
2023-01-04T05:35:57.931Z,99753.33
2023-01-04T05:38:25.426Z,99744.88
2023-01-04T05:40:52.624Z,99747.25
2023-01-04T05:43:21.047Z,99742.89
2023-01-04T05:45:50.283Z,99747.45
2023-01-04T05:48:18.065Z,99753.18
2023-01-04T05:50:48.077Z,99754.63
2023-01-04T05:53:17.681Z,99765.78
2023-01-04T05:55:45.664Z,99766.34
2023-01-04T05:58:13.579Z,99769.23
2023-01-04T06:00:40.548Z,99772.00
2023-01-04T06:03:07.566Z,99776.50
2023-01-04T06:05:34.519Z,99779.39
2023-01-04T06:08:01.408Z,99782.59
2023-01-04T06:10:28.370Z,99777.83
2023-01-04T06:12:56.442Z,99780.87
2023-01-04T06:15:23.715Z,99780.61
2023-01-04T06:17:50.613Z,99781.41
2023-01-04T06:20:17.862Z,99778.96
2023-01-04T06:22:44.775Z,99776.17
2023-01-04T06:25:11.773Z,99776.61
2023-01-04T06:27:39.571Z,99771.28
2023-01-04T06:30:07.051Z,99770.83
2023-01-04T06:32:34.120Z,99775.29
2023-01-04T06:35:01.306Z,99770.23
2023-01-04T06:37:28.270Z,99767.17
2023-01-04T06:39:55.463Z,99765.73
2023-01-04T06:42:41.069Z,99759.60
2023-01-04T06:45:08.408Z,99763.15
2023-01-04T06:47:35.434Z,99761.38
2023-01-04T06:50:02.488Z,99763.35
2023-01-04T06:52:29.844Z,99760.50
2023-01-04T06:54:56.785Z,99755.76
2023-01-04T06:57:24.163Z,99753.76
2023-01-04T06:59:51.087Z,99757.53
2023-01-04T07:02:18.058Z,99760.03
2023-01-04T07:04:46.579Z,99763.56
2023-01-04T07:07:13.470Z,99763.11
2023-01-04T07:09:40.520Z,99759.92
2023-01-04T07:12:07.468Z,99767.13
2023-01-04T07:14:34.475Z,99773.73
2023-01-04T07:17:01.547Z,99779.26
2023-01-04T07:19:28.598Z,99780.18
2023-01-04T07:21:55.942Z,99774.34
2023-01-04T07:24:29.587Z,99761.95
2023-01-04T07:26:58.943Z,99758.27
2023-01-04T07:29:25.799Z,99757.80
2023-01-04T07:31:53.137Z,99756.95
2023-01-04T07:34:22.079Z,99751.70
2023-01-04T07:36:49.150Z,99755.64
2023-01-04T07:39:17.602Z,99761.17
2023-01-04T07:41:45.177Z,99758.02
2023-01-04T07:44:13.703Z,99752.77
2023-01-04T07:46:41.417Z,99754.98
2023-01-04T07:49:16.729Z,99759.33
2023-01-04T07:51:45.190Z,99751.61
2023-01-04T07:54:12.237Z,99750.28
2023-01-04T07:56:39.107Z,99755.85
2023-01-04T07:59:06.991Z,99757.96
2023-01-04T08:01:35.740Z,99758.52
2023-01-04T08:04:02.717Z,99764.95
2023-01-04T08:06:29.716Z,99760.81
2023-01-04T08:08:59.571Z,99761.39
2023-01-04T08:11:26.432Z,99763.71
2023-01-04T08:13:53.526Z,99765.06
2023-01-04T08:16:22.955Z,99761.92
2023-01-04T08:18:55.931Z,99757.23
2023-01-04T08:21:23.147Z,99748.04
2023-01-04T08:23:50.150Z,99751.41
2023-01-04T08:26:17.235Z,99747.73
2023-01-04T08:28:44.589Z,99753.64
2023-01-04T08:31:16.436Z,99753.47
2023-01-04T08:33:43.738Z,99754.19
2023-01-04T08:36:28.047Z,99755.40
2023-01-04T08:38:59.857Z,99756.52
2023-01-04T08:44:20.408Z,99749.13
2023-01-04T08:46:47.785Z,99746.50
2023-01-04T08:49:15.102Z,99742.11
2023-01-04T08:51:42.297Z,99739.77
2023-01-04T08:54:09.559Z,99745.27
2023-01-04T08:56:36.721Z,99745.95
2023-01-04T08:59:05.087Z,99736.77
2023-01-04T09:01:33.716Z,99735.73
2023-01-04T09:04:01.446Z,99734.02
2023-01-04T09:06:28.992Z,99736.77
2023-01-04T09:08:56.655Z,99736.73
2023-01-04T09:11:23.897Z,99727.47
2023-01-04T09:14:04.584Z,99722.97
2023-01-04T09:16:34.391Z,99717.63
2023-01-04T09:19:01.623Z,99716.64
2023-01-04T09:21:29.075Z,99719.69
2023-01-04T09:23:57.252Z,99712.14
2023-01-04T09:26:24.282Z,99705.57
2023-01-04T09:28:55.208Z,99700.68
2023-01-04T09:31:24.443Z,99700.07
2023-01-04T09:36:39.476Z,99697.33
2023-01-04T09:39:06.519Z,99694.11
2023-01-04T09:41:56.828Z,99689.38
2023-01-04T09:44:54.539Z,99689.14
2023-01-04T09:47:14.968Z,99688.23
2023-01-04T09:49:45.859Z,99686.89
2023-01-04T09:52:18.393Z,99687.73
2023-01-04T09:54:48.154Z,99689.24
2023-01-04T09:57:21.983Z,99683.35
2023-01-04T09:59:48.956Z,99687.66
2023-01-04T10:02:23.256Z,99684.61
2023-01-04T10:04:50.609Z,99684.58
2023-01-04T10:07:27.342Z,99682.65
2023-01-04T10:09:55.484Z,99679.55
2023-01-04T10:13:12.409Z,99680.17
2023-01-04T10:15:56.074Z,99670.60
2023-01-04T10:19:51.085Z,99670.63
2023-01-04T10:21:43.484Z,99665.91
2023-01-04T10:24:29.606Z,99665.88
2023-01-04T10:27:19.999Z,99668.29
2023-01-04T10:30:21.750Z,99660.30
2023-01-04T10:32:58.757Z,99651.39
2023-01-04T10:35:27.273Z,99645.11
2023-01-04T10:37:57.743Z,99646.39
2023-01-04T10:40:26.166Z,99642.48
2023-01-04T10:42:56.429Z,99638.17
2023-01-04T10:45:36.086Z,99625.02
2023-01-04T10:48:06.785Z,99617.80
2023-01-04T10:50:46.653Z,99612.20
2023-01-04T10:53:20.831Z,99604.55
2023-01-04T10:56:25.914Z,99600.41
2023-01-04T10:58:49.280Z,99596.91
2023-01-04T11:01:37.932Z,99590.82
2023-01-04T11:04:12.503Z,99589.88
2023-01-04T11:06:46.882Z,99588.83
2023-01-04T11:09:22.790Z,99581.35
2023-01-04T11:11:53.297Z,99570.72
2023-01-04T11:14:20.288Z,99561.17
2023-01-04T11:16:49.031Z,99561.42
2023-01-04T11:19:16.250Z,99561.89
2023-01-04T11:21:46.913Z,99560.89
2023-01-04T11:24:31.652Z,99568.71
2023-01-04T11:27:07.795Z,99564.05
2023-01-04T11:29:42.125Z,99564.58
2023-01-04T11:32:16.830Z,99554.15
2023-01-04T11:34:44.847Z,99555.52
2023-01-04T11:37:35.625Z,99546.92
2023-01-04T11:40:18.375Z,99539.83
2023-01-04T11:42:46.583Z,99538.70
2023-01-04T11:45:24.328Z,99534.91
2023-01-04T11:47:55.848Z,99523.86
2023-01-04T11:50:40.415Z,99513.95
2023-01-04T11:53:27.555Z,99511.08
2023-01-04T11:56:14.562Z,99506.35
2023-01-04T11:58:41.866Z,99508.27
2023-01-04T12:01:20.431Z,99507.39
2023-01-04T12:03:47.536Z,99499.75
2023-01-04T12:06:28.571Z,99496.55
2023-01-04T12:08:55.647Z,99494.39
2023-01-04T12:11:26.749Z,99496.49
2023-01-04T13:09:03.851Z,99409.61
2023-01-04T13:11:46.172Z,99400.59
2023-01-04T13:14:21.581Z,99389.42
2023-01-04T13:17:12.015Z,99383.95
2023-01-04T13:19:39.105Z,99375.89
2023-01-04T13:22:10.806Z,99367.97
2023-01-04T13:24:39.095Z,99365.85
2023-01-04T13:27:10.428Z,99363.77
2023-01-04T13:29:40.290Z,99362.67
2023-01-04T13:32:12.051Z,99361.50
2023-01-04T13:34:39.659Z,99357.44
2023-01-04T13:37:17.310Z,99357.61
2023-01-04T13:39:49.119Z,99354.58
2023-01-04T13:42:29.581Z,99351.38
2023-01-04T13:45:20.136Z,99349.02
2023-01-04T13:47:49.284Z,99340.05
2023-01-04T13:50:34.458Z,99334.25
2023-01-04T13:53:07.904Z,99329.95
2023-01-04T13:55:37.345Z,99330.36
2023-01-04T13:58:06.541Z,99329.24
2023-01-04T14:00:43.235Z,99323.17
2023-01-04T14:03:10.474Z,99327.30
2023-01-04T14:05:38.045Z,99322.39
2023-01-04T14:08:11.648Z,99312.35
2023-01-04T14:10:42.563Z,99313.34
2023-01-04T14:13:14.285Z,99303.48
2023-01-04T14:15:41.462Z,99301.25
2023-01-04T14:18:28.850Z,99302.15
2023-01-04T14:20:55.755Z,99303.34
2023-01-04T14:23:33.151Z,99298.92
2023-01-04T14:26:00.025Z,99297.89
2023-01-04T14:31:27.971Z,99292.29
2023-01-04T14:33:55.779Z,99289.38
2023-01-04T14:36:30.591Z,99282.48
2023-01-04T14:38:58.954Z,99274.48
2023-01-04T14:41:32.848Z,99268.60
2023-01-04T14:44:00.858Z,99271.48
2023-01-04T14:46:28.920Z,99270.92
2023-01-04T14:48:55.848Z,99261.94
2023-01-04T14:51:34.367Z,99257.84
2023-01-04T14:54:01.344Z,99250.63
2023-01-04T14:56:28.413Z,99251.60
2023-01-04T14:58:55.482Z,99251.23
2023-01-04T15:01:22.774Z,99248.48
2023-01-04T15:03:49.971Z,99248.52
2023-01-04T15:06:17.108Z,99246.45
2023-01-04T15:08:45.495Z,99247.18
2023-01-04T15:11:13.312Z,99245.41
2023-01-04T15:13:40.809Z,99243.54
2023-01-04T15:16:09.416Z,99229.91
2023-01-04T15:18:36.412Z,99226.91
2023-01-04T15:21:04.140Z,99221.83
2023-01-04T15:23:31.580Z,99216.89
2023-01-04T15:26:05.738Z,99217.80
2023-01-04T15:28:34.901Z,99214.47
2023-01-04T15:31:06.445Z,99213.61
2023-01-04T15:33:35.717Z,99207.58
2023-01-04T15:36:04.147Z,99194.48
2023-01-04T15:38:31.117Z,99188.17
2023-01-04T15:41:02.933Z,99187.45
2023-01-04T15:43:35.972Z,99189.05
2023-01-04T15:46:04.999Z,99186.43
2023-01-04T15:48:32.158Z,99182.25
2023-01-04T15:51:02.911Z,99189.66
2023-01-04T15:53:29.770Z,99183.22
2023-01-04T15:56:07.143Z,99172.81
2023-01-04T15:58:34.316Z,99168.73
2023-01-04T16:01:08.034Z,99164.95
2023-01-04T16:03:36.103Z,99153.48
2023-01-04T16:06:11.244Z,99135.64
2023-01-04T16:08:38.379Z,99136.67
2023-01-04T16:11:23.687Z,99138.44
2023-01-04T16:13:52.337Z,99133.16
2023-01-04T16:16:20.208Z,99121.65
2023-01-04T16:18:48.795Z,99113.52
2023-01-04T16:21:16.776Z,99114.39
2023-01-04T16:23:43.664Z,99110.05
2023-01-04T16:26:12.800Z,99110.39
2023-01-04T16:28:40.021Z,99099.55
2023-01-04T16:31:07.678Z,99096.86
2023-01-04T16:33:35.797Z,99097.58
2023-01-04T16:36:07.430Z,99092.13
2023-01-04T16:38:42.055Z,99091.17
2023-01-04T16:41:11.330Z,99087.53
2023-01-04T16:43:48.661Z,99087.54
2023-01-04T16:46:19.303Z,99084.70
2023-01-04T16:48:55.423Z,99074.77
2023-01-04T16:51:23.411Z,99069.42
2023-01-04T16:53:50.599Z,99060.81
2023-01-04T16:56:21.549Z,99063.83
2023-01-04T16:58:48.469Z,99065.98
2023-01-04T17:01:20.121Z,99061.11
2023-01-04T17:03:47.951Z,99058.05
2023-01-04T17:06:19.939Z,99058.27
2023-01-04T17:08:47.713Z,99054.23
2023-01-04T17:12:04.929Z,99048.52
2023-01-04T17:14:10.207Z,99037.50
2023-01-04T17:16:37.768Z,99032.58
2023-01-04T17:19:04.731Z,99026.56
2023-01-04T17:21:35.540Z,99023.91
2023-01-04T17:24:03.252Z,99021.20
2023-01-04T17:26:31.304Z,99018.80
2023-01-04T17:28:58.614Z,99016.05
2023-01-04T17:31:27.847Z,99012.76
2023-01-04T17:33:55.023Z,99005.47
2023-01-04T17:36:22.270Z,98995.19
2023-01-04T17:38:49.432Z,98989.16
2023-01-04T17:41:21.391Z,98983.06
2023-01-04T17:43:50.836Z,98978.05
2023-01-04T17:46:23.169Z,98965.23
2023-01-04T17:49:17.672Z,98962.23
2023-01-04T17:51:39.473Z,98956.56
2023-01-04T17:54:06.486Z,98960.93
2023-01-04T17:56:34.600Z,98963.56
2023-01-04T17:59:02.797Z,98963.64
2023-01-04T18:01:30.093Z,98954.00
2023-01-04T18:03:57.884Z,98947.32
2023-01-04T18:06:35.433Z,98943.61
2023-01-04T18:09:03.662Z,98931.79
2023-01-04T18:11:30.966Z,98930.31
2023-01-04T18:13:57.904Z,98924.59
2023-01-04T18:16:26.845Z,98919.16
2023-01-04T18:18:54.579Z,98903.36
2023-01-04T18:21:28.336Z,98895.30
2023-01-04T18:29:33.658Z,98887.20
2023-01-04T18:32:00.719Z,98878.98
2023-01-04T18:34:27.690Z,98876.13
2023-01-04T18:36:55.958Z,98862.84
2023-01-04T18:39:22.954Z,98860.72
2023-01-04T18:41:49.771Z,98853.11
2023-01-04T18:44:34.899Z,98853.48
2023-01-04T18:47:03.051Z,98842.81
2023-01-04T18:49:30.067Z,98839.85
2023-01-04T18:51:56.938Z,98835.48
2023-01-04T18:54:24.132Z,98827.48
2023-01-04T18:56:56.994Z,98821.52
2023-01-04T18:59:28.628Z,98820.58
2023-01-04T19:02:01.196Z,98819.22
2023-01-04T19:04:33.678Z,98817.27
2023-01-04T19:07:00.960Z,98810.80
2023-01-04T19:09:28.063Z,98806.21
2023-01-04T19:11:55.018Z,98801.55
2023-01-04T19:14:22.306Z,98797.29
2023-01-04T19:16:49.504Z,98789.84
2023-01-04T21:21:12.273Z,98537.77
2023-01-04T21:23:40.891Z,98526.92
2023-01-04T21:26:08.502Z,98517.11
2023-01-04T21:28:35.842Z,98518.28
2023-01-04T21:31:02.770Z,98508.28
2023-01-04T21:33:30.590Z,98504.14
2023-01-04T21:35:57.468Z,98501.92
2023-01-04T21:38:27.201Z,98502.06
2023-01-04T21:40:54.106Z,98501.02
2023-01-04T21:43:21.098Z,98500.17
2023-01-04T21:45:48.034Z,98492.17
2023-01-04T21:48:15.024Z,98489.64
2023-01-04T21:50:41.903Z,98495.32
2023-01-04T21:53:08.774Z,98490.50
2023-01-04T21:55:36.322Z,98487.28
2023-01-04T21:58:03.971Z,98483.64
2023-01-04T22:00:30.951Z,98480.20
2023-01-04T22:02:57.884Z,98473.52
2023-01-04T22:05:24.942Z,98465.15
2023-01-04T22:07:51.969Z,98463.12
2023-01-04T22:10:19.143Z,98455.77
2023-01-04T22:12:48.050Z,98456.30
2023-01-04T22:15:15.162Z,98448.56
2023-01-04T22:17:42.070Z,98435.52
2023-01-04T22:20:09.919Z,98426.71
2023-01-04T22:22:36.857Z,98423.82
2023-01-04T22:25:03.964Z,98421.55
2023-01-04T22:27:31.107Z,98424.80
2023-01-04T22:29:58.138Z,98408.07
2023-01-04T22:32:24.994Z,98404.79
2023-01-04T22:34:52.045Z,98397.20
2023-01-04T22:37:19.065Z,98382.41
2023-01-04T22:39:46.000Z,98382.71
2023-01-04T22:42:12.939Z,98376.63
2023-01-04T22:44:39.941Z,98371.30
2023-01-04T22:47:06.875Z,98357.14
2023-01-04T22:49:33.836Z,98353.41
2023-01-04T22:52:00.776Z,98356.69
2023-01-04T22:54:27.702Z,98350.31
2023-01-04T22:56:54.747Z,98343.20
2023-01-04T22:59:23.049Z,98342.87
2023-01-04T23:01:50.176Z,98335.02
2023-01-04T23:04:19.019Z,98328.08
2023-01-04T23:06:46.271Z,98317.44
2023-01-04T23:09:15.163Z,98308.65
2023-01-04T23:11:42.359Z,98299.23
2023-01-04T23:14:14.983Z,98291.62
2023-01-04T23:16:43.884Z,98284.80
2023-01-04T23:19:13.832Z,98282.33
2023-01-04T23:21:40.883Z,98282.98
2023-01-04T23:24:09.887Z,98274.20
2023-01-04T23:26:36.976Z,98273.52
2023-01-04T23:29:03.971Z,98274.98
2023-01-04T23:31:32.118Z,98271.27
2023-01-04T23:34:01.452Z,98264.16
2023-01-04T23:36:30.343Z,98262.23
2023-01-04T23:39:01.283Z,98261.76
2023-01-04T23:41:47.212Z,98260.48
2023-01-04T23:44:15.278Z,98256.79
2023-01-04T23:46:42.320Z,98248.64
2023-01-04T23:49:10.057Z,98246.29
2023-01-04T23:51:37.428Z,98242.52
2023-01-04T23:54:05.046Z,98240.78
2023-01-04T23:56:35.027Z,98239.23
2023-01-04T23:59:02.452Z,98232.10
